Richland, Iowa
Current Conditions -  °F | °C
As of 1:35 PM on Thursday 23 Oct 2014 (Local Time) from KFFL Reporting Station
Overcast Overcast  
Wind Chill: 68°   Ceiling: 10000
Heat Index: 68°   Visibility: NA
Dew Point: 54°   Wind: 8mph
Humidity: 60%   Direction: 230°SW
Pressure: 30.05"   Gusts: 14mph
Location:  41.19°N, 91.99°W
Report Text: KFFL 231835Z AUTO 23007G12KT 200V260 SCT026 SCT033 OVC100 20/12 A3005 RMK AO2
Loading
Personal Weather Stations






























Interactive Weather Map
Tropical Storm Tracking
New forecast layout! Learn more

10-Day Weather Forecast

Advertisements
Track Severe Weather on mobile